sensor_id;sensor_type;location;lat;lon;timestamp;P1;durP1;ratioP1;P2;durP2;ratioP2
17991;SDS011;9121;50.926;5.340;2023-05-29T00:00:03;13.30;;;6.15;;
17991;SDS011;9121;50.926;5.340;2023-05-29T00:02:31;14.50;;;5.93;;
17991;SDS011;9121;50.926;5.340;2023-05-29T00:04:59;14.10;;;5.85;;
17991;SDS011;9121;50.926;5.340;2023-05-29T00:07:28;17.83;;;6.35;;
17991;SDS011;9121;50.926;5.340;2023-05-29T00:09:55;14.57;;;5.95;;
17991;SDS011;9121;50.926;5.340;2023-05-29T00:12:23;13.35;;;6.38;;
17991;SDS011;9121;50.926;5.340;2023-05-29T00:14:50;13.68;;;6.55;;
17991;SDS011;9121;50.926;5.340;2023-05-29T00:17:17;13.93;;;6.57;;
17991;SDS011;9121;50.926;5.340;2023-05-29T00:19:45;12.57;;;6.10;;
17991;SDS011;9121;50.926;5.340;2023-05-29T00:22:12;17.50;;;6.28;;
17991;SDS011;9121;50.926;5.340;2023-05-29T00:24:39;19.83;;;6.45;;
17991;SDS011;9121;50.926;5.340;2023-05-29T00:27:06;15.07;;;6.68;;
17991;SDS011;9121;50.926;5.340;2023-05-29T00:29:35;14.52;;;6.63;;
17991;SDS011;9121;50.926;5.340;2023-05-29T00:32:03;18.00;;;6.80;;
17991;SDS011;9121;50.926;5.340;2023-05-29T00:34:30;17.00;;;6.55;;
17991;SDS011;9121;50.926;5.340;2023-05-29T00:36:57;14.43;;;6.05;;
17991;SDS011;9121;50.926;5.340;2023-05-29T00:39:25;15.93;;;6.53;;
17991;SDS011;9121;50.926;5.340;2023-05-29T00:41:51;13.73;;;6.57;;
17991;SDS011;9121;50.926;5.340;2023-05-29T00:44:18;17.13;;;6.97;;
17991;SDS011;9121;50.926;5.340;2023-05-29T00:46:47;11.40;;;6.95;;
17991;SDS011;9121;50.926;5.340;2023-05-29T00:49:18;13.55;;;6.97;;
17991;SDS011;9121;50.926;5.340;2023-05-29T00:51:46;20.75;;;7.30;;
17991;SDS011;9121;50.926;5.340;2023-05-29T00:54:15;11.93;;;6.60;;
17991;SDS011;9121;50.926;5.340;2023-05-29T00:56:52;14.30;;;6.28;;
17991;SDS011;9121;50.926;5.340;2023-05-29T00:59:20;19.75;;;7.72;;
17991;SDS011;9121;50.926;5.340;2023-05-29T01:01:49;14.93;;;6.72;;
17991;SDS011;9121;50.926;5.340;2023-05-29T01:04:17;14.98;;;7.05;;
17991;SDS011;9121;50.926;5.340;2023-05-29T01:06:44;15.77;;;6.25;;
17991;SDS011;9121;50.926;5.340;2023-05-29T01:09:11;15.48;;;6.93;;
17991;SDS011;9121;50.926;5.340;2023-05-29T01:11:41;20.10;;;7.28;;
17991;SDS011;9121;50.926;5.340;2023-05-29T01:14:17;14.82;;;7.50;;
17991;SDS011;9121;50.926;5.340;2023-05-29T01:16:54;14.02;;;7.68;;
17991;SDS011;9121;50.926;5.340;2023-05-29T01:19:32;18.58;;;7.05;;
17991;SDS011;9121;50.926;5.340;2023-05-29T01:22:12;15.60;;;8.10;;
17991;SDS011;9121;50.926;5.340;2023-05-29T01:24:54;22.73;;;8.02;;
17991;SDS011;9121;50.926;5.340;2023-05-29T01:27:29;20.52;;;7.80;;
17991;SDS011;9121;50.926;5.340;2023-05-29T01:29:58;19.10;;;7.80;;
17991;SDS011;9121;50.926;5.340;2023-05-29T01:32:27;15.85;;;7.50;;
17991;SDS011;9121;50.926;5.340;2023-05-29T01:34:55;22.30;;;8.30;;
17991;SDS011;9121;50.926;5.340;2023-05-29T01:37:22;17.83;;;7.82;;
17991;SDS011;9121;50.926;5.340;2023-05-29T01:39:49;18.10;;;8.50;;
17991;SDS011;9121;50.926;5.340;2023-05-29T01:42:16;21.23;;;8.40;;
17991;SDS011;9121;50.926;5.340;2023-05-29T01:44:44;21.02;;;9.13;;
17991;SDS011;9121;50.926;5.340;2023-05-29T01:47:11;19.88;;;8.27;;
17991;SDS011;9121;50.926;5.340;2023-05-29T01:49:39;18.88;;;8.25;;
17991;SDS011;9121;50.926;5.340;2023-05-29T01:52:06;20.13;;;9.38;;
17991;SDS011;9121;50.926;5.340;2023-05-29T01:54:33;21.30;;;8.80;;
17991;SDS011;9121;50.926;5.340;2023-05-29T01:57:00;23.63;;;9.55;;
17991;SDS011;9121;50.926;5.340;2023-05-29T01:59:31;20.73;;;9.88;;
17991;SDS011;9121;50.926;5.340;2023-05-29T02:02:06;22.42;;;10.00;;
17991;SDS011;9121;50.926;5.340;2023-05-29T02:04:33;22.00;;;9.23;;
17991;SDS011;9121;50.926;5.340;2023-05-29T02:07:00;24.35;;;9.35;;
17991;SDS011;9121;50.926;5.340;2023-05-29T02:09:27;23.80;;;9.38;;
17991;SDS011;9121;50.926;5.340;2023-05-29T02:11:54;25.85;;;9.88;;
17991;SDS011;9121;50.926;5.340;2023-05-29T02:14:21;18.80;;;9.35;;
17991;SDS011;9121;50.926;5.340;2023-05-29T02:16:49;21.63;;;9.48;;
17991;SDS011;9121;50.926;5.340;2023-05-29T02:19:18;21.88;;;9.48;;
17991;SDS011;9121;50.926;5.340;2023-05-29T02:21:46;26.77;;;10.10;;
17991;SDS011;9121;50.926;5.340;2023-05-29T02:24:14;21.15;;;8.80;;
17991;SDS011;9121;50.926;5.340;2023-05-29T02:26:41;21.10;;;8.57;;
17991;SDS011;9121;50.926;5.340;2023-05-29T02:29:08;18.08;;;8.32;;
17991;SDS011;9121;50.926;5.340;2023-05-29T02:31:35;22.77;;;9.55;;
17991;SDS011;9121;50.926;5.340;2023-05-29T02:34:02;22.02;;;8.57;;
17991;SDS011;9121;50.926;5.340;2023-05-29T02:36:31;28.35;;;9.18;;
17991;SDS011;9121;50.926;5.340;2023-05-29T02:39:00;17.20;;;8.32;;
17991;SDS011;9121;50.926;5.340;2023-05-29T02:41:27;19.05;;;8.60;;
17991;SDS011;9121;50.926;5.340;2023-05-29T02:43:54;22.70;;;8.35;;
17991;SDS011;9121;50.926;5.340;2023-05-29T02:46:21;26.60;;;8.27;;
17991;SDS011;9121;50.926;5.340;2023-05-29T02:48:47;21.45;;;7.90;;
17991;SDS011;9121;50.926;5.340;2023-05-29T02:51:14;21.08;;;7.57;;
17991;SDS011;9121;50.926;5.340;2023-05-29T02:53:43;23.50;;;6.85;;
17991;SDS011;9121;50.926;5.340;2023-05-29T02:56:10;20.17;;;6.93;;
17991;SDS011;9121;50.926;5.340;2023-05-29T02:58:37;25.65;;;6.95;;
17991;SDS011;9121;50.926;5.340;2023-05-29T03:01:04;14.52;;;6.40;;
17991;SDS011;9121;50.926;5.340;2023-05-29T03:03:31;17.45;;;7.30;;
17991;SDS011;9121;50.926;5.340;2023-05-29T03:05:58;27.00;;;6.80;;
17991;SDS011;9121;50.926;5.340;2023-05-29T03:08:26;20.30;;;5.85;;
17991;SDS011;9121;50.926;5.340;2023-05-29T03:10:55;23.67;;;6.37;;
17991;SDS011;9121;50.926;5.340;2023-05-29T03:13:22;23.50;;;5.57;;
17991;SDS011;9121;50.926;5.340;2023-05-29T03:15:49;17.90;;;5.93;;
17991;SDS011;9121;50.926;5.340;2023-05-29T03:18:16;17.90;;;5.82;;
17991;SDS011;9121;50.926;5.340;2023-05-29T03:20:43;17.77;;;5.25;;
17991;SDS011;9121;50.926;5.340;2023-05-29T03:23:10;18.38;;;5.65;;
17991;SDS011;9121;50.926;5.340;2023-05-29T03:25:37;19.20;;;5.33;;
17991;SDS011;9121;50.926;5.340;2023-05-29T03:28:05;16.53;;;5.27;;
17991;SDS011;9121;50.926;5.340;2023-05-29T03:30:33;17.33;;;5.07;;
17991;SDS011;9121;50.926;5.340;2023-05-29T03:33:00;21.57;;;5.83;;
17991;SDS011;9121;50.926;5.340;2023-05-29T03:35:28;15.93;;;5.33;;
17991;SDS011;9121;50.926;5.340;2023-05-29T03:37:55;16.57;;;5.23;;
17991;SDS011;9121;50.926;5.340;2023-05-29T03:40:22;19.80;;;5.23;;
17991;SDS011;9121;50.926;5.340;2023-05-29T03:42:49;23.13;;;5.63;;
17991;SDS011;9121;50.926;5.340;2023-05-29T03:45:18;18.20;;;4.73;;
17991;SDS011;9121;50.926;5.340;2023-05-29T03:47:45;22.90;;;4.67;;
17991;SDS011;9121;50.926;5.340;2023-05-29T03:50:12;13.33;;;5.10;;
17991;SDS011;9121;50.926;5.340;2023-05-29T03:52:40;16.73;;;4.50;;
17991;SDS011;9121;50.926;5.340;2023-05-29T03:55:08;21.67;;;4.60;;
17991;SDS011;9121;50.926;5.340;2023-05-29T03:57:38;19.20;;;4.77;;
17991;SDS011;9121;50.926;5.340;2023-05-29T04:00:06;17.37;;;4.90;;
17991;SDS011;9121;50.926;5.340;2023-05-29T04:02:36;21.77;;;5.07;;
17991;SDS011;9121;50.926;5.340;2023-05-29T04:05:04;17.07;;;4.80;;
17991;SDS011;9121;50.926;5.340;2023-05-29T04:07:31;21.90;;;5.23;;
17991;SDS011;9121;50.926;5.340;2023-05-29T04:09:58;17.30;;;4.40;;
17991;SDS011;9121;50.926;5.340;2023-05-29T04:12:25;18.13;;;4.50;;
17991;SDS011;9121;50.926;5.340;2023-05-29T04:14:52;14.60;;;3.73;;
17991;SDS011;9121;50.926;5.340;2023-05-29T04:17:19;17.57;;;3.93;;
17991;SDS011;9121;50.926;5.340;2023-05-29T04:19:48;22.90;;;4.77;;
17991;SDS011;9121;50.926;5.340;2023-05-29T04:22:15;23.58;;;5.32;;
17991;SDS011;9121;50.926;5.340;2023-05-29T04:24:41;18.70;;;4.00;;
17991;SDS011;9121;50.926;5.340;2023-05-29T04:27:08;17.97;;;4.40;;
17991;SDS011;9121;50.926;5.340;2023-05-29T04:29:38;17.47;;;4.27;;
17991;SDS011;9121;50.926;5.340;2023-05-29T04:32:05;20.77;;;3.77;;
17991;SDS011;9121;50.926;5.340;2023-05-29T04:34:33;18.37;;;4.00;;
17991;SDS011;9121;50.926;5.340;2023-05-29T04:37:02;25.50;;;4.60;;
17991;SDS011;9121;50.926;5.340;2023-05-29T04:39:29;22.90;;;4.35;;
17991;SDS011;9121;50.926;5.340;2023-05-29T04:41:56;21.37;;;4.37;;
17991;SDS011;9121;50.926;5.340;2023-05-29T04:44:24;23.53;;;5.43;;
17991;SDS011;9121;50.926;5.340;2023-05-29T04:46:51;17.87;;;4.23;;
17991;SDS011;9121;50.926;5.340;2023-05-29T04:49:19;24.93;;;4.30;;
17991;SDS011;9121;50.926;5.340;2023-05-29T04:51:46;17.03;;;3.77;;
17991;SDS011;9121;50.926;5.340;2023-05-29T04:54:15;22.57;;;4.30;;
17991;SDS011;9121;50.926;5.340;2023-05-29T04:56:42;18.50;;;4.03;;
17991;SDS011;9121;50.926;5.340;2023-05-29T04:59:09;18.47;;;4.53;;
17991;SDS011;9121;50.926;5.340;2023-05-29T05:01:36;26.80;;;4.40;;
17991;SDS011;9121;50.926;5.340;2023-05-29T05:04:03;18.98;;;4.13;;
17991;SDS011;9121;50.926;5.340;2023-05-29T05:06:30;24.37;;;4.53;;
17991;SDS011;9121;50.926;5.340;2023-05-29T05:08:57;24.30;;;4.97;;
17991;SDS011;9121;50.926;5.340;2023-05-29T05:11:26;21.93;;;4.10;;
17991;SDS011;9121;50.926;5.340;2023-05-29T05:13:53;18.37;;;3.90;;
17991;SDS011;9121;50.926;5.340;2023-05-29T05:16:20;20.40;;;4.13;;
17991;SDS011;9121;50.926;5.340;2023-05-29T05:18:47;22.50;;;3.93;;
17991;SDS011;9121;50.926;5.340;2023-05-29T05:21:13;12.93;;;4.33;;
17991;SDS011;9121;50.926;5.340;2023-05-29T05:23:40;22.03;;;4.50;;
17991;SDS011;9121;50.926;5.340;2023-05-29T05:26:07;27.37;;;5.30;;
17991;SDS011;9121;50.926;5.340;2023-05-29T05:28:36;17.92;;;4.63;;
17991;SDS011;9121;50.926;5.340;2023-05-29T05:31:03;16.67;;;4.03;;
17991;SDS011;9121;50.926;5.340;2023-05-29T05:33:29;25.00;;;5.30;;
17991;SDS011;9121;50.926;5.340;2023-05-29T05:35:56;28.87;;;4.93;;
17991;SDS011;9121;50.926;5.340;2023-05-29T05:38:23;20.02;;;4.68;;
17991;SDS011;9121;50.926;5.340;2023-05-29T05:40:50;22.67;;;4.50;;
17991;SDS011;9121;50.926;5.340;2023-05-29T05:43:17;19.48;;;4.28;;
17991;SDS011;9121;50.926;5.340;2023-05-29T05:45:46;23.77;;;4.43;;
17991;SDS011;9121;50.926;5.340;2023-05-29T05:48:13;28.43;;;4.57;;
17991;SDS011;9121;50.926;5.340;2023-05-29T05:50:40;17.20;;;3.85;;
17991;SDS011;9121;50.926;5.340;2023-05-29T05:53:06;26.80;;;4.67;;
17991;SDS011;9121;50.926;5.340;2023-05-29T05:55:33;18.87;;;3.90;;
17991;SDS011;9121;50.926;5.340;2023-05-29T05:58:00;24.00;;;4.43;;
17991;SDS011;9121;50.926;5.340;2023-05-29T06:00:27;18.40;;;4.43;;
17991;SDS011;9121;50.926;5.340;2023-05-29T06:02:56;21.90;;;4.28;;
17991;SDS011;9121;50.926;5.340;2023-05-29T06:05:22;22.30;;;4.63;;
17991;SDS011;9121;50.926;5.340;2023-05-29T06:07:49;18.35;;;4.30;;
17991;SDS011;9121;50.926;5.340;2023-05-29T06:10:16;26.45;;;4.10;;
17991;SDS011;9121;50.926;5.340;2023-05-29T06:12:44;22.83;;;4.75;;
17991;SDS011;9121;50.926;5.340;2023-05-29T06:15:11;19.77;;;4.60;;
17991;SDS011;9121;50.926;5.340;2023-05-29T06:17:38;18.13;;;4.60;;
17991;SDS011;9121;50.926;5.340;2023-05-29T06:20:07;20.50;;;4.13;;
17991;SDS011;9121;50.926;5.340;2023-05-29T06:22:35;23.58;;;4.13;;
17991;SDS011;9121;50.926;5.340;2023-05-29T06:25:02;19.77;;;4.15;;
17991;SDS011;9121;50.926;5.340;2023-05-29T06:27:30;21.60;;;4.07;;
17991;SDS011;9121;50.926;5.340;2023-05-29T06:29:57;21.65;;;3.53;;
17991;SDS011;9121;50.926;5.340;2023-05-29T06:32:24;33.72;;;5.28;;
17991;SDS011;9121;50.926;5.340;2023-05-29T06:34:52;17.33;;;4.15;;
17991;SDS011;9121;50.926;5.340;2023-05-29T06:37:21;23.67;;;4.40;;
17991;SDS011;9121;50.926;5.340;2023-05-29T06:39:48;21.05;;;4.90;;
17991;SDS011;9121;50.926;5.340;2023-05-29T06:42:15;18.77;;;4.22;;
17991;SDS011;9121;50.926;5.340;2023-05-29T06:44:42;21.38;;;4.75;;
17991;SDS011;9121;50.926;5.340;2023-05-29T06:47:09;18.65;;;4.18;;
17991;SDS011;9121;50.926;5.340;2023-05-29T06:49:36;23.05;;;4.70;;
17991;SDS011;9121;50.926;5.340;2023-05-29T06:52:03;17.58;;;4.25;;
17991;SDS011;9121;50.926;5.340;2023-05-29T06:54:31;17.25;;;3.95;;
17991;SDS011;9121;50.926;5.340;2023-05-29T06:56:58;22.88;;;4.05;;
17991;SDS011;9121;50.926;5.340;2023-05-29T06:59:25;20.73;;;3.97;;
17991;SDS011;9121;50.926;5.340;2023-05-29T07:01:52;16.50;;;4.05;;
17991;SDS011;9121;50.926;5.340;2023-05-29T07:04:19;24.10;;;5.03;;
17991;SDS011;9121;50.926;5.340;2023-05-29T07:06:46;22.73;;;4.88;;
17991;SDS011;9121;50.926;5.340;2023-05-29T07:09:13;22.02;;;4.35;;
17991;SDS011;9121;50.926;5.340;2023-05-29T07:11:41;21.27;;;3.97;;
17991;SDS011;9121;50.926;5.340;2023-05-29T07:14:08;20.67;;;4.28;;
17991;SDS011;9121;50.926;5.340;2023-05-29T07:16:35;18.67;;;4.13;;
17991;SDS011;9121;50.926;5.340;2023-05-29T07:19:02;20.05;;;4.07;;
17991;SDS011;9121;50.926;5.340;2023-05-29T07:21:29;17.20;;;4.00;;
17991;SDS011;9121;50.926;5.340;2023-05-29T07:23:56;21.17;;;4.60;;
17991;SDS011;9121;50.926;5.340;2023-05-29T07:26:23;25.42;;;4.35;;
17991;SDS011;9121;50.926;5.340;2023-05-29T07:28:51;23.73;;;4.55;;
17991;SDS011;9121;50.926;5.340;2023-05-29T07:31:18;18.33;;;4.18;;
17991;SDS011;9121;50.926;5.340;2023-05-29T07:33:45;19.33;;;4.18;;
17991;SDS011;9121;50.926;5.340;2023-05-29T07:36:14;22.83;;;3.85;;
17991;SDS011;9121;50.926;5.340;2023-05-29T07:38:41;16.45;;;4.18;;
17991;SDS011;9121;50.926;5.340;2023-05-29T07:41:08;20.67;;;4.38;;
17991;SDS011;9121;50.926;5.340;2023-05-29T07:43:35;14.57;;;3.63;;
17991;SDS011;9121;50.926;5.340;2023-05-29T07:46:04;21.13;;;3.97;;
17991;SDS011;9121;50.926;5.340;2023-05-29T07:48:31;18.70;;;4.57;;
17991;SDS011;9121;50.926;5.340;2023-05-29T07:50:58;20.73;;;4.03;;
17991;SDS011;9121;50.926;5.340;2023-05-29T07:53:25;19.58;;;4.25;;
17991;SDS011;9121;50.926;5.340;2023-05-29T07:55:52;18.80;;;4.32;;
17991;SDS011;9121;50.926;5.340;2023-05-29T07:58:19;17.63;;;4.20;;
17991;SDS011;9121;50.926;5.340;2023-05-29T08:00:46;17.70;;;4.88;;
17991;SDS011;9121;50.926;5.340;2023-05-29T08:03:15;16.38;;;4.20;;
17991;SDS011;9121;50.926;5.340;2023-05-29T08:05:42;23.42;;;4.05;;
17991;SDS011;9121;50.926;5.340;2023-05-29T08:08:09;22.17;;;4.30;;
17991;SDS011;9121;50.926;5.340;2023-05-29T08:10:37;17.70;;;4.38;;
17991;SDS011;9121;50.926;5.340;2023-05-29T08:13:04;18.95;;;4.30;;
17991;SDS011;9121;50.926;5.340;2023-05-29T08:15:31;17.15;;;4.10;;
17991;SDS011;9121;50.926;5.340;2023-05-29T08:17:59;17.17;;;3.75;;
17991;SDS011;9121;50.926;5.340;2023-05-29T08:20:27;16.33;;;4.00;;
17991;SDS011;9121;50.926;5.340;2023-05-29T08:22:54;23.80;;;4.25;;
17991;SDS011;9121;50.926;5.340;2023-05-29T08:25:21;16.23;;;3.83;;
17991;SDS011;9121;50.926;5.340;2023-05-29T08:27:48;19.08;;;4.00;;
17991;SDS011;9121;50.926;5.340;2023-05-29T08:30:15;19.83;;;4.43;;
17991;SDS011;9121;50.926;5.340;2023-05-29T08:32:42;21.30;;;4.57;;
17991;SDS011;9121;50.926;5.340;2023-05-29T08:35:09;21.83;;;4.05;;
17991;SDS011;9121;50.926;5.340;2023-05-29T08:37:37;16.58;;;3.80;;
17991;SDS011;9121;50.926;5.340;2023-05-29T08:40:05;15.65;;;4.38;;
17991;SDS011;9121;50.926;5.340;2023-05-29T08:42:34;59.10;;;6.35;;
17991;SDS011;9121;50.926;5.340;2023-05-29T08:45:06;15.88;;;4.57;;
17991;SDS011;9121;50.926;5.340;2023-05-29T08:47:35;27.60;;;5.68;;
17991;SDS011;9121;50.926;5.340;2023-05-29T08:50:05;20.02;;;4.78;;
17991;SDS011;9121;50.926;5.340;2023-05-29T08:52:34;21.92;;;3.80;;
17991;SDS011;9121;50.926;5.340;2023-05-29T08:55:04;24.20;;;4.75;;
17991;SDS011;9121;50.926;5.340;2023-05-29T08:57:31;18.45;;;4.57;;
17991;SDS011;9121;50.926;5.340;2023-05-29T09:00:00;28.95;;;4.88;;
17991;SDS011;9121;50.926;5.340;2023-05-29T09:02:33;19.40;;;4.05;;
17991;SDS011;9121;50.926;5.340;2023-05-29T09:05:01;25.73;;;4.78;;
17991;SDS011;9121;50.926;5.340;2023-05-29T09:07:29;22.30;;;4.78;;
17991;SDS011;9121;50.926;5.340;2023-05-29T09:09:56;16.40;;;4.40;;
17991;SDS011;9121;50.926;5.340;2023-05-29T09:12:25;20.30;;;4.50;;
17991;SDS011;9121;50.926;5.340;2023-05-29T09:14:52;23.73;;;4.10;;
17991;SDS011;9121;50.926;5.340;2023-05-29T09:17:19;21.13;;;4.43;;
17991;SDS011;9121;50.926;5.340;2023-05-29T09:19:47;14.68;;;3.85;;
17991;SDS011;9121;50.926;5.340;2023-05-29T09:22:15;18.95;;;4.30;;
17991;SDS011;9121;50.926;5.340;2023-05-29T09:24:42;13.98;;;3.95;;
17991;SDS011;9121;50.926;5.340;2023-05-29T09:27:12;15.57;;;4.10;;
17991;SDS011;9121;50.926;5.340;2023-05-29T09:29:42;29.55;;;4.85;;
17991;SDS011;9121;50.926;5.340;2023-05-29T09:32:11;24.17;;;4.38;;
17991;SDS011;9121;50.926;5.340;2023-05-29T09:34:41;17.98;;;4.75;;
17991;SDS011;9121;50.926;5.340;2023-05-29T09:37:09;16.60;;;4.22;;
17991;SDS011;9121;50.926;5.340;2023-05-29T09:39:46;22.63;;;4.32;;
17991;SDS011;9121;50.926;5.340;2023-05-29T09:42:14;22.08;;;4.15;;
17991;SDS011;9121;50.926;5.340;2023-05-29T09:44:43;15.63;;;4.43;;
17991;SDS011;9121;50.926;5.340;2023-05-29T09:47:13;19.83;;;3.97;;
17991;SDS011;9121;50.926;5.340;2023-05-29T09:49:41;16.23;;;4.53;;
17991;SDS011;9121;50.926;5.340;2023-05-29T09:52:10;19.70;;;4.70;;
17991;SDS011;9121;50.926;5.340;2023-05-29T09:54:41;32.15;;;5.20;;
17991;SDS011;9121;50.926;5.340;2023-05-29T09:57:10;17.92;;;4.22;;
17991;SDS011;9121;50.926;5.340;2023-05-29T09:59:38;16.27;;;4.05;;
17991;SDS011;9121;50.926;5.340;2023-05-29T10:02:10;17.25;;;4.20;;
17991;SDS011;9121;50.926;5.340;2023-05-29T10:04:38;24.73;;;4.97;;
17991;SDS011;9121;50.926;5.340;2023-05-29T10:07:08;13.48;;;3.88;;
17991;SDS011;9121;50.926;5.340;2023-05-29T10:09:37;17.05;;;4.15;;
17991;SDS011;9121;50.926;5.340;2023-05-29T10:12:08;19.27;;;3.50;;
17991;SDS011;9121;50.926;5.340;2023-05-29T10:14:38;27.67;;;4.13;;
17991;SDS011;9121;50.926;5.340;2023-05-29T10:17:09;16.75;;;4.13;;
17991;SDS011;9121;50.926;5.340;2023-05-29T10:19:40;41.42;;;5.47;;
17991;SDS011;9121;50.926;5.340;2023-05-29T10:22:09;17.73;;;3.92;;
17991;SDS011;9121;50.926;5.340;2023-05-29T10:24:37;30.08;;;4.68;;
17991;SDS011;9121;50.926;5.340;2023-05-29T10:27:04;29.40;;;5.15;;
17991;SDS011;9121;50.926;5.340;2023-05-29T10:29:34;17.48;;;3.72;;
17991;SDS011;9121;50.926;5.340;2023-05-29T10:32:07;20.85;;;3.63;;
17991;SDS011;9121;50.926;5.340;2023-05-29T10:34:47;18.88;;;4.18;;
17991;SDS011;9121;50.926;5.340;2023-05-29T10:37:24;16.63;;;3.80;;
17991;SDS011;9121;50.926;5.340;2023-05-29T10:40:03;25.02;;;4.57;;
17991;SDS011;9121;50.926;5.340;2023-05-29T10:42:41;58.55;;;5.18;;
17991;SDS011;9121;50.926;5.340;2023-05-29T10:45:10;19.20;;;4.28;;
17991;SDS011;9121;50.926;5.340;2023-05-29T10:47:40;11.38;;;3.60;;
17991;SDS011;9121;50.926;5.340;2023-05-29T10:50:07;10.57;;;3.67;;
17991;SDS011;9121;50.926;5.340;2023-05-29T10:52:35;19.00;;;4.15;;
17991;SDS011;9121;50.926;5.340;2023-05-29T10:55:12;46.58;;;5.80;;
17991;SDS011;9121;50.926;5.340;2023-05-29T10:57:46;16.70;;;3.80;;
17991;SDS011;9121;50.926;5.340;2023-05-29T11:00:15;13.40;;;3.53;;
17991;SDS011;9121;50.926;5.340;2023-05-29T11:02:45;14.82;;;3.75;;
17991;SDS011;9121;50.926;5.340;2023-05-29T11:05:19;11.63;;;3.35;;
17991;SDS011;9121;50.926;5.340;2023-05-29T11:07:50;17.40;;;4.38;;
17991;SDS011;9121;50.926;5.340;2023-05-29T11:10:55;17.75;;;3.75;;
17991;SDS011;9121;50.926;5.340;2023-05-29T11:13:23;43.13;;;4.00;;
17991;SDS011;9121;50.926;5.340;2023-05-29T11:19:04;19.52;;;4.20;;
17991;SDS011;9121;50.926;5.340;2023-05-29T11:21:44;17.02;;;3.92;;
17991;SDS011;9121;50.926;5.340;2023-05-29T11:24:21;15.55;;;3.83;;
17991;SDS011;9121;50.926;5.340;2023-05-29T11:26:50;16.83;;;3.55;;
17991;SDS011;9121;50.926;5.340;2023-05-29T11:29:21;15.55;;;3.95;;
17991;SDS011;9121;50.926;5.340;2023-05-29T11:31:49;14.15;;;3.60;;
17991;SDS011;9121;50.926;5.340;2023-05-29T11:34:23;11.23;;;3.45;;
17991;SDS011;9121;50.926;5.340;2023-05-29T11:36:54;12.48;;;3.17;;
17991;SDS011;9121;50.926;5.340;2023-05-29T11:39:22;16.10;;;3.65;;
17991;SDS011;9121;50.926;5.340;2023-05-29T11:41:50;19.58;;;3.80;;
17991;SDS011;9121;50.926;5.340;2023-05-29T11:44:18;79.80;;;5.80;;
17991;SDS011;9121;50.926;5.340;2023-05-29T11:46:45;9.35;;;3.28;;
17991;SDS011;9121;50.926;5.340;2023-05-29T11:49:12;15.27;;;3.33;;
17991;SDS011;9121;50.926;5.340;2023-05-29T11:51:42;15.13;;;3.60;;
17991;SDS011;9121;50.926;5.340;2023-05-29T11:54:11;13.45;;;3.55;;
17991;SDS011;9121;50.926;5.340;2023-05-29T11:56:38;14.25;;;3.78;;
17991;SDS011;9121;50.926;5.340;2023-05-29T11:59:06;13.65;;;3.35;;
17991;SDS011;9121;50.926;5.340;2023-05-29T12:01:37;18.38;;;4.00;;
17991;SDS011;9121;50.926;5.340;2023-05-29T12:04:13;12.85;;;3.63;;
17991;SDS011;9121;50.926;5.340;2023-05-29T12:06:41;17.40;;;3.50;;
17991;SDS011;9121;50.926;5.340;2023-05-29T12:09:09;13.55;;;3.42;;
17991;SDS011;9121;50.926;5.340;2023-05-29T12:11:50;10.88;;;3.35;;
17991;SDS011;9121;50.926;5.340;2023-05-29T12:14:17;23.50;;;3.67;;
17991;SDS011;9121;50.926;5.340;2023-05-29T12:16:44;21.42;;;3.53;;
17991;SDS011;9121;50.926;5.340;2023-05-29T12:19:12;15.10;;;3.05;;
17991;SDS011;9121;50.926;5.340;2023-05-29T12:21:41;19.42;;;3.90;;
17991;SDS011;9121;50.926;5.340;2023-05-29T12:24:09;16.88;;;3.83;;
17991;SDS011;9121;50.926;5.340;2023-05-29T12:26:37;45.42;;;4.88;;
17991;SDS011;9121;50.926;5.340;2023-05-29T12:29:04;16.20;;;3.50;;
17991;SDS011;9121;50.926;5.340;2023-05-29T12:31:31;14.00;;;3.25;;
17991;SDS011;9121;50.926;5.340;2023-05-29T12:33:59;13.38;;;3.25;;
17991;SDS011;9121;50.926;5.340;2023-05-29T12:36:27;14.57;;;3.33;;
17991;SDS011;9121;50.926;5.340;2023-05-29T12:38:57;12.48;;;3.28;;
17991;SDS011;9121;50.926;5.340;2023-05-29T12:41:26;11.93;;;3.38;;
17991;SDS011;9121;50.926;5.340;2023-05-29T12:43:53;13.00;;;3.35;;
17991;SDS011;9121;50.926;5.340;2023-05-29T12:46:21;11.43;;;3.45;;
17991;SDS011;9121;50.926;5.340;2023-05-29T12:48:49;15.88;;;3.90;;
17991;SDS011;9121;50.926;5.340;2023-05-29T12:51:22;12.63;;;3.95;;
17991;SDS011;9121;50.926;5.340;2023-05-29T12:53:49;15.18;;;4.20;;
17991;SDS011;9121;50.926;5.340;2023-05-29T12:56:21;15.48;;;3.88;;
17991;SDS011;9121;50.926;5.340;2023-05-29T12:58:49;26.10;;;3.97;;
17991;SDS011;9121;50.926;5.340;2023-05-29T13:01:17;10.80;;;3.33;;
17991;SDS011;9121;50.926;5.340;2023-05-29T13:03:43;13.63;;;3.30;;
17991;SDS011;9121;50.926;5.340;2023-05-29T13:06:11;12.60;;;3.42;;
17991;SDS011;9121;50.926;5.340;2023-05-29T13:08:38;15.52;;;3.22;;
17991;SDS011;9121;50.926;5.340;2023-05-29T13:11:05;16.15;;;3.97;;
17991;SDS011;9121;50.926;5.340;2023-05-29T13:13:33;13.50;;;3.42;;
17991;SDS011;9121;50.926;5.340;2023-05-29T13:16:00;35.92;;;4.50;;
17991;SDS011;9121;50.926;5.340;2023-05-29T13:18:27;17.85;;;3.50;;
17991;SDS011;9121;50.926;5.340;2023-05-29T13:20:54;15.35;;;4.22;;
17991;SDS011;9121;50.926;5.340;2023-05-29T13:23:21;14.57;;;4.13;;
17991;SDS011;9121;50.926;5.340;2023-05-29T13:25:48;13.35;;;4.03;;
17991;SDS011;9121;50.926;5.340;2023-05-29T13:28:15;17.70;;;3.95;;
17991;SDS011;9121;50.926;5.340;2023-05-29T13:30:44;15.27;;;4.05;;
17991;SDS011;9121;50.926;5.340;2023-05-29T13:33:11;19.83;;;4.35;;
17991;SDS011;9121;50.926;5.340;2023-05-29T13:35:38;11.85;;;3.50;;
17991;SDS011;9121;50.926;5.340;2023-05-29T13:38:05;12.10;;;3.55;;
17991;SDS011;9121;50.926;5.340;2023-05-29T13:40:32;10.35;;;3.90;;
17991;SDS011;9121;50.926;5.340;2023-05-29T13:42:59;11.98;;;3.95;;
17991;SDS011;9121;50.926;5.340;2023-05-29T13:45:26;15.27;;;4.05;;
17991;SDS011;9121;50.926;5.340;2023-05-29T13:47:55;13.60;;;3.63;;
17991;SDS011;9121;50.926;5.340;2023-05-29T13:50:22;11.07;;;3.53;;
17991;SDS011;9121;50.926;5.340;2023-05-29T13:52:50;14.82;;;3.25;;
17991;SDS011;9121;50.926;5.340;2023-05-29T13:55:17;11.15;;;3.03;;
17991;SDS011;9121;50.926;5.340;2023-05-29T13:57:43;11.85;;;3.80;;
17991;SDS011;9121;50.926;5.340;2023-05-29T14:00:11;14.35;;;3.47;;
17991;SDS011;9121;50.926;5.340;2023-05-29T14:02:38;11.48;;;3.47;;
17991;SDS011;9121;50.926;5.340;2023-05-29T14:05:07;12.98;;;3.33;;
17991;SDS011;9121;50.926;5.340;2023-05-29T14:07:36;11.63;;;2.97;;
17991;SDS011;9121;50.926;5.340;2023-05-29T14:10:03;14.05;;;3.67;;
17991;SDS011;9121;50.926;5.340;2023-05-29T14:12:30;15.25;;;3.45;;
17991;SDS011;9121;50.926;5.340;2023-05-29T14:14:57;11.35;;;3.47;;
17991;SDS011;9121;50.926;5.340;2023-05-29T14:17:25;13.88;;;3.33;;
17991;SDS011;9121;50.926;5.340;2023-05-29T14:19:52;241.88;;;15.40;;
17991;SDS011;9121;50.926;5.340;2023-05-29T14:22:21;14.13;;;3.70;;
17991;SDS011;9121;50.926;5.340;2023-05-29T14:24:48;10.18;;;3.65;;
17991;SDS011;9121;50.926;5.340;2023-05-29T14:27:15;8.43;;;3.20;;
17991;SDS011;9121;50.926;5.340;2023-05-29T14:29:42;14.50;;;3.70;;
17991;SDS011;9121;50.926;5.340;2023-05-29T14:32:11;14.48;;;3.40;;
17991;SDS011;9121;50.926;5.340;2023-05-29T14:34:38;11.77;;;3.33;;
17991;SDS011;9121;50.926;5.340;2023-05-29T14:37:05;10.00;;;3.28;;
17991;SDS011;9121;50.926;5.340;2023-05-29T14:39:33;11.40;;;3.40;;
17991;SDS011;9121;50.926;5.340;2023-05-29T14:42:00;10.18;;;3.55;;
17991;SDS011;9121;50.926;5.340;2023-05-29T14:44:27;24.90;;;3.47;;
17991;SDS011;9121;50.926;5.340;2023-05-29T14:46:54;13.10;;;3.55;;
17991;SDS011;9121;50.926;5.340;2023-05-29T14:49:21;13.40;;;3.85;;
17991;SDS011;9121;50.926;5.340;2023-05-29T14:51:48;14.27;;;3.50;;
17991;SDS011;9121;50.926;5.340;2023-05-29T14:54:15;15.23;;;4.03;;
17991;SDS011;9121;50.926;5.340;2023-05-29T14:56:43;15.02;;;3.72;;